createdAt,value
2019-05-02T00:00:28.238Z,100431.34
2019-05-02T00:01:40.157Z,100425.20
2019-05-02T00:02:43.427Z,100422.20
2019-05-02T00:03:45.564Z,100416.97
2019-05-02T00:04:51.029Z,100420.89
2019-05-02T00:05:51.688Z,100410.05
2019-05-02T00:07:14.563Z,100411.36
2019-05-02T00:08:16.052Z,100412.53
2019-05-02T00:09:20.070Z,100417.20
2019-05-02T00:10:24.776Z,100404.53
2019-05-02T00:11:27.154Z,100399.19
2019-05-02T00:12:29.801Z,100407.15
2019-05-02T00:13:32.048Z,100404.70
2019-05-02T00:14:34.377Z,100397.25
2019-05-02T00:15:39.181Z,100394.64
2019-05-02T00:16:45.049Z,100392.39
2019-05-02T00:17:45.555Z,100396.86
2019-05-02T00:18:47.794Z,100392.78
2019-05-02T00:19:51.199Z,100390.16
2019-05-02T00:20:57.011Z,100393.69
2019-05-02T00:21:57.381Z,100391.63
2019-05-02T00:22:59.748Z,100394.24
2019-05-02T00:24:03.044Z,100399.86
2019-05-02T00:25:05.895Z,100389.77
2019-05-02T00:26:08.094Z,100384.94
2019-05-02T00:27:10.539Z,100393.33
2019-05-02T00:28:14.026Z,100391.08
2019-05-02T00:29:18.867Z,100386.64
2019-05-02T00:30:21.017Z,100391.47
2019-05-02T00:31:24.634Z,100379.72
2019-05-02T00:32:26.836Z,100384.42
2019-05-02T00:33:33.860Z,100381.81
2019-05-02T00:34:33.026Z,100398.80
2019-05-02T00:35:35.306Z,100379.59
2019-05-02T00:36:37.943Z,100387.82
2019-05-02T00:37:40.344Z,100384.81
2019-05-02T00:38:44.387Z,100377.38
2019-05-02T00:39:49.295Z,100377.89
2019-05-02T00:40:52.266Z,100376.19
2019-05-02T00:41:54.596Z,100378.66
2019-05-02T00:42:58.136Z,100370.55
2019-05-02T00:44:00.689Z,100372.38
2019-05-02T00:45:02.892Z,100374.23
2019-05-02T00:46:05.063Z,100376.45
2019-05-02T00:47:29.032Z,100363.39
2019-05-02T00:48:36.482Z,100364.55
2019-05-02T00:49:38.680Z,100357.26
2019-05-02T00:50:45.286Z,100360.23
2019-05-02T00:51:44.954Z,100363.00
2019-05-02T00:52:47.183Z,100359.48
2019-05-02T00:53:49.581Z,100359.48
2019-05-02T00:54:55.042Z,100361.53
2019-05-02T00:55:55.752Z,100358.41
2019-05-02T00:56:59.888Z,100355.40
2019-05-02T00:58:01.871Z,100354.88
2019-05-02T00:59:07.434Z,100350.56
2019-05-02T01:00:07.999Z,100347.95
2019-05-02T01:01:30.900Z,100350.17
2019-05-02T01:02:47.971Z,100347.05
2019-05-02T01:03:56.856Z,100350.17
2019-05-02T01:05:03.292Z,100345.34
2019-05-02T01:06:03.223Z,100337.50
2019-05-02T01:07:05.836Z,100342.33
2019-05-02T01:08:08.071Z,100337.11
2019-05-02T01:09:11.018Z,100333.59
2019-05-02T01:10:17.378Z,100340.52
2019-05-02T01:11:22.090Z,100337.90
2019-05-02T01:12:26.507Z,100339.60
2019-05-02T01:13:25.772Z,100331.77
2019-05-02T01:14:31.837Z,100329.55
2019-05-02T01:15:31.881Z,100343.39
2019-05-02T01:16:34.095Z,100331.77
2019-05-02T01:17:36.304Z,100329.55
2019-05-02T01:18:41.367Z,100327.72
2019-05-02T01:19:42.388Z,100324.31
2019-05-02T01:20:45.763Z,100329.15
2019-05-02T01:21:47.932Z,100330.84
2019-05-02T01:22:52.233Z,100333.22
2019-05-02T01:23:54.036Z,100328.89
2019-05-02T01:24:56.245Z,100328.89
2019-05-02T01:25:58.453Z,100332.69
2019-05-02T01:27:09.803Z,100330.32
2019-05-02T01:28:26.416Z,100328.27
2019-05-02T01:29:40.096Z,100323.55
2019-05-02T01:31:05.068Z,100323.28
2019-05-02T01:32:30.142Z,100331.13
2019-05-02T01:33:41.804Z,100333.73
2019-05-02T01:34:54.307Z,100330.73
2019-05-02T01:36:08.112Z,100318.97
2019-05-02T01:37:20.858Z,100329.42
2019-05-02T01:38:31.991Z,100325.50
2019-05-02T01:39:33.358Z,100328.11
2019-05-02T01:40:35.551Z,100323.28
2019-05-02T01:41:37.755Z,100312.31
2019-05-02T01:42:44.236Z,100316.62
2019-05-02T01:43:43.906Z,100321.45
2019-05-02T01:44:46.132Z,100316.74
2019-05-02T01:45:48.338Z,100317.26
2019-05-02T01:46:53.986Z,100319.23
2019-05-02T01:47:55.737Z,100319.23
2019-05-02T01:48:58.953Z,100315.59
2019-05-02T01:50:01.155Z,100314.41
2019-05-02T01:51:04.323Z,100311.41
2019-05-02T01:52:07.270Z,100310.89
2019-05-02T01:53:09.463Z,100309.58
2019-05-02T01:54:11.682Z,100313.62
2019-05-02T01:55:17.018Z,100309.58
2019-05-02T01:56:17.761Z,100302.14
2019-05-02T01:57:19.973Z,100299.52
2019-05-02T01:58:22.875Z,100303.05
2019-05-02T01:59:29.149Z,100300.05
2019-05-02T02:00:29.163Z,100288.92
2019-05-02T02:01:31.370Z,100274.31
2019-05-02T02:02:34.127Z,100289.08
2019-05-02T02:03:40.655Z,100301.75
2019-05-02T02:04:41.497Z,100292.20
2019-05-02T02:05:43.761Z,100285.16
2019-05-02T02:06:45.938Z,100287.22
2019-05-02T02:07:50.865Z,100280.33
2019-05-02T02:08:52.025Z,100279.02
2019-05-02T02:09:54.249Z,100280.69
2019-05-02T02:10:58.256Z,100281.08
2019-05-02T02:12:00.289Z,100281.48
2019-05-02T02:13:05.031Z,100276.64
2019-05-02T02:14:07.290Z,100279.14
2019-05-02T02:15:10.386Z,100278.47
2019-05-02T02:16:12.509Z,100279.38
2019-05-02T02:17:15.621Z,100277.16
2019-05-02T02:18:22.075Z,100277.32
2019-05-02T02:19:34.663Z,100271.81
2019-05-02T02:21:12.531Z,100276.25
2019-05-02T02:22:23.730Z,100282.39
2019-05-02T02:23:33.866Z,100274.03
2019-05-02T02:25:04.202Z,100283.17
2019-05-02T02:26:12.070Z,100264.37
2019-05-02T02:27:12.501Z,100273.64
2019-05-02T02:28:14.780Z,100264.89
2019-05-02T02:29:17.006Z,100271.94
2019-05-02T02:30:24.442Z,100263.98
2019-05-02T02:31:23.020Z,100269.20
2019-05-02T02:32:26.750Z,100275.34
2019-05-02T02:33:29.069Z,100277.56
2019-05-02T02:34:32.450Z,100255.90
2019-05-02T02:35:34.920Z,100264.77
2019-05-02T02:36:37.164Z,100262.67
2019-05-02T02:37:39.389Z,100262.28
2019-05-02T02:38:41.590Z,100264.89
2019-05-02T02:39:48.534Z,100264.37
2019-05-02T02:40:47.666Z,100256.81
2019-05-02T02:41:52.000Z,100254.20
2019-05-02T02:42:53.755Z,100262.55
2019-05-02T02:44:23.918Z,100254.72
2019-05-02T02:45:27.751Z,100259.16
2019-05-02T02:46:37.894Z,100250.41
2019-05-02T02:47:35.959Z,100256.94
2019-05-02T02:48:40.450Z,100252.62
2019-05-02T02:49:42.199Z,100254.72
2019-05-02T02:50:45.242Z,100254.32
2019-05-02T02:51:47.526Z,100251.31
2019-05-02T02:52:49.750Z,100253.16
2019-05-02T02:54:03.227Z,100251.98
2019-05-02T02:54:55.863Z,100250.67
2019-05-02T02:56:01.642Z,100250.28
2019-05-02T02:57:01.962Z,100249.89
2019-05-02T02:58:04.706Z,100249.09
2019-05-02T02:59:08.011Z,100242.05
2019-05-02T03:00:11.138Z,100248.58
2019-05-02T03:01:13.635Z,100249.09
2019-05-02T03:02:15.843Z,100244.14
2019-05-02T03:03:20.826Z,100248.19
2019-05-02T03:04:21.923Z,100248.06
2019-05-02T03:05:25.899Z,100249.25
2019-05-02T03:06:27.991Z,100246.63
2019-05-02T03:07:30.220Z,100242.72
2019-05-02T03:08:32.411Z,100237.09
2019-05-02T03:09:34.614Z,100237.49
2019-05-02T03:10:40.003Z,100238.92
2019-05-02T03:11:50.344Z,100242.45
2019-05-02T03:13:14.974Z,100244.14
2019-05-02T03:14:19.963Z,100240.23
2019-05-02T03:15:27.936Z,100242.72
2019-05-02T03:16:29.023Z,100244.14
2019-05-02T03:17:31.221Z,100239.20
2019-05-02T03:18:40.393Z,100237.89
2019-05-02T03:19:37.301Z,100242.33
2019-05-02T03:20:40.584Z,100244.81
2019-05-02T03:21:54.626Z,100242.98
2019-05-02T03:22:57.291Z,100235.16
2019-05-02T03:24:03.262Z,100236.06
2019-05-02T03:25:03.377Z,100232.94
2019-05-02T03:26:08.116Z,100241.95
2019-05-02T03:27:09.430Z,100231.63
2019-05-02T03:28:17.400Z,100224.47
2019-05-02T03:29:15.471Z,100231.12
2019-05-02T03:30:32.905Z,100228.38
2019-05-02T03:31:24.698Z,100228.77
2019-05-02T03:32:33.761Z,100228.90
2019-05-02T03:33:29.324Z,100230.72
2019-05-02T03:34:47.714Z,100222.48
2019-05-02T03:35:42.615Z,100218.57
2019-05-02T03:36:39.212Z,100214.66
2019-05-02T03:37:44.793Z,100214.27
2019-05-02T03:38:45.284Z,100214.53
2019-05-02T03:39:49.792Z,100212.71
2019-05-02T03:40:51.350Z,100210.62
2019-05-02T03:41:55.596Z,100212.83
2019-05-02T03:42:57.429Z,100212.83
2019-05-02T03:44:10.572Z,100208.52
2019-05-02T03:45:04.959Z,100207.09
2019-05-02T03:46:07.425Z,100202.78
2019-05-02T03:47:09.643Z,100199.66
2019-05-02T03:48:18.141Z,100200.80
2019-05-02T03:49:15.701Z,100202.66
2019-05-02T03:50:31.226Z,100202.66
2019-05-02T03:51:25.306Z,100199.10
2019-05-02T03:52:25.650Z,100192.21
2019-05-02T03:53:27.930Z,100196.64
2019-05-02T03:54:30.176Z,100197.05
2019-05-02T03:55:33.956Z,100192.84
2019-05-02T03:56:38.161Z,100196.88
2019-05-02T03:57:42.225Z,100194.67
2019-05-02T03:58:48.688Z,100196.48
2019-05-02T03:59:47.800Z,100192.97
2019-05-02T04:01:00.338Z,100193.12
2019-05-02T04:01:53.939Z,100192.84
2019-05-02T04:03:00.812Z,100193.75
2019-05-02T04:04:00.028Z,100189.05
2019-05-02T04:05:02.929Z,100195.85
2019-05-02T04:06:05.252Z,100190.23
2019-05-02T04:07:07.785Z,100202.38
2019-05-02T04:08:19.947Z,100190.23
2019-05-02T04:09:14.004Z,100194.16
2019-05-02T04:10:19.713Z,100194.67
2019-05-02T04:11:20.246Z,100193.75
2019-05-02T04:12:22.485Z,100197.03
2019-05-02T04:13:30.184Z,100191.97
2019-05-02T04:14:37.168Z,100204.36
2019-05-02T04:15:35.090Z,100197.83
2019-05-02T04:16:36.429Z,100193.52
2019-05-02T04:17:38.650Z,100194.94
2019-05-02T04:18:40.878Z,100193.23
2019-05-02T04:19:43.072Z,100196.77
2019-05-02T04:20:49.767Z,100196.77
2019-05-02T04:21:52.669Z,100196.77
2019-05-02T04:22:53.008Z,100195.45
2019-05-02T04:24:06.624Z,100188.41
2019-05-02T04:24:59.189Z,100188.80
2019-05-02T04:26:06.673Z,100177.45
2019-05-02T04:27:05.283Z,100180.58
2019-05-02T04:28:12.045Z,100187.50
2019-05-02T04:29:11.352Z,100191.02
2019-05-02T04:30:14.267Z,100178.88
2019-05-02T04:31:16.691Z,100181.88
2019-05-02T04:32:18.894Z,100175.75
2019-05-02T04:33:21.119Z,100172.23
2019-05-02T04:34:23.374Z,100180.18
2019-05-02T04:35:28.832Z,100172.23
2019-05-02T04:36:29.440Z,100171.83
2019-05-02T04:37:34.476Z,100174.56
2019-05-02T04:38:44.615Z,100168.31
2019-05-02T04:39:39.425Z,100177.84
2019-05-02T04:40:46.353Z,100173.53
2019-05-02T04:41:48.399Z,100170.92
2019-05-02T04:42:51.250Z,100170.01
2019-05-02T04:43:57.739Z,100172.23
2019-05-02T04:45:13.741Z,100173.93
2019-05-02T04:46:00.998Z,100176.42
2019-05-02T04:47:13.865Z,100168.58
2019-05-02T04:48:08.419Z,100177.84
2019-05-02T04:49:10.914Z,100172.23
2019-05-02T04:50:17.895Z,100176.14
2019-05-02T04:51:20.220Z,100171.71
2019-05-02T04:52:21.401Z,100176.94
2019-05-02T04:53:25.789Z,100176.54
2019-05-02T04:54:32.179Z,100177.84
2019-05-02T04:55:33.399Z,100177.45
2019-05-02T04:56:42.185Z,100182.16
2019-05-02T04:57:47.267Z,100170.28
2019-05-02T04:58:43.686Z,100178.63
2019-05-02T04:59:50.097Z,100179.03
2019-05-02T05:00:53.576Z,100169.89
2019-05-02T05:01:57.586Z,100166.88
2019-05-02T05:03:00.819Z,100176.42
2019-05-02T05:04:03.479Z,100168.19
2019-05-02T05:05:08.058Z,100175.11
2019-05-02T05:06:12.232Z,100178.12
2019-05-02T05:07:13.599Z,100177.20
2019-05-02T05:08:17.544Z,100174.59
2019-05-02T05:09:19.803Z,100168.86
2019-05-02T05:10:21.994Z,100172.89
2019-05-02T05:11:25.001Z,100170.68
2019-05-02T05:12:27.790Z,100174.20
2019-05-02T05:13:30.144Z,100157.89
2019-05-02T05:14:41.274Z,100169.65
2019-05-02T05:15:44.571Z,100175.66
2019-05-02T05:16:40.183Z,100167.95
2019-05-02T05:17:42.479Z,100164.94
2019-05-02T05:18:49.299Z,100170.68
2019-05-02T05:19:50.272Z,100166.37
2019-05-02T05:20:53.253Z,100162.45
2019-05-02T05:22:04.487Z,100169.25
2019-05-02T05:23:00.347Z,100170.53
2019-05-02T05:24:21.500Z,100181.77
2019-05-02T05:25:29.358Z,100178.48
2019-05-02T05:26:33.769Z,100169.58
2019-05-02T05:27:37.697Z,100170.22
2019-05-02T05:28:44.225Z,100175.95
2019-05-02T05:29:45.985Z,100174.65
2019-05-02T05:30:51.911Z,100171.64
2019-05-02T05:31:55.113Z,100173.86
2019-05-02T05:32:55.662Z,100173.98
2019-05-02T05:33:58.100Z,100169.55
2019-05-02T05:35:03.341Z,100170.61
2019-05-02T05:36:04.211Z,100167.05
2019-05-02T05:37:09.454Z,100177.66
2019-05-02T05:38:10.336Z,100166.30
2019-05-02T05:39:12.532Z,100172.83
2019-05-02T05:40:14.742Z,100172.44
2019-05-02T05:41:22.766Z,100169.03
2019-05-02T05:42:23.153Z,100171.12
2019-05-02T05:43:24.740Z,100172.44
2019-05-02T05:44:28.631Z,100171.12
2019-05-02T05:45:30.827Z,100176.47
2019-05-02T05:46:33.389Z,100172.44
2019-05-02T05:47:37.822Z,100173.86
2019-05-02T05:48:40.831Z,100178.69
2019-05-02T05:49:43.147Z,100176.59
2019-05-02T05:50:45.364Z,100168.64
2019-05-02T05:51:49.520Z,100177.78
2019-05-02T05:52:51.931Z,100172.95
2019-05-02T05:53:59.466Z,100173.34
2019-05-02T05:54:58.218Z,100181.18
2019-05-02T05:56:02.443Z,100171.12
2019-05-02T05:57:04.958Z,100175.95
2019-05-02T05:58:13.106Z,100175.05
2019-05-02T05:59:11.094Z,100172.44
2019-05-02T06:00:18.733Z,100170.73
2019-05-02T06:01:20.112Z,100173.34
2019-05-02T06:02:21.046Z,100167.72
2019-05-02T06:03:23.259Z,100172.95
2019-05-02T06:04:32.613Z,100170.22
2019-05-02T06:05:33.197Z,100167.72
2019-05-02T06:06:33.174Z,100174.65
2019-05-02T06:07:41.837Z,100167.72
2019-05-02T06:08:39.510Z,100165.51
2019-05-02T06:09:41.731Z,100174.65
2019-05-02T06:10:45.179Z,100177.78
2019-05-02T06:11:50.765Z,100177.78
2019-05-02T06:12:51.359Z,100178.69
2019-05-02T06:13:53.602Z,100176.08
2019-05-02T06:14:56.235Z,100169.55
2019-05-02T06:16:02.886Z,100173.07
2019-05-02T06:17:03.634Z,100170.06
2019-05-02T06:18:06.186Z,100173.98
2019-05-02T06:19:12.962Z,100168.88
2019-05-02T06:20:14.171Z,100172.00
2019-05-02T06:21:17.164Z,100164.56
2019-05-02T06:22:24.437Z,100175.01
2019-05-02T06:23:25.440Z,100168.08
2019-05-02T06:24:27.649Z,100164.95
2019-05-02T06:25:34.229Z,100166.38
2019-05-02T06:26:35.657Z,100151.10
2019-05-02T06:27:39.628Z,100159.34
2019-05-02T06:28:43.231Z,100162.86
2019-05-02T06:29:45.624Z,100163.77
2019-05-02T06:30:47.906Z,100158.55
2019-05-02T06:31:50.114Z,100166.78
2019-05-02T06:32:55.051Z,100155.93
2019-05-02T06:33:56.337Z,100162.06
2019-05-02T06:34:58.622Z,100168.59
2019-05-02T06:36:01.410Z,100159.06
2019-05-02T06:37:08.121Z,100165.59
2019-05-02T06:38:08.546Z,100155.14
2019-05-02T06:39:10.776Z,100155.14
2019-05-02T06:40:13.067Z,100153.83
2019-05-02T06:41:16.240Z,100156.84
2019-05-02T06:42:21.400Z,100165.23
2019-05-02T06:43:23.732Z,100156.09
2019-05-02T06:44:26.236Z,100149.16
2019-05-02T06:45:32.345Z,100151.77
2019-05-02T06:46:32.721Z,100146.39
2019-05-02T06:47:41.350Z,100145.64
2019-05-02T06:48:41.699Z,100142.08
2019-05-02T06:49:44.035Z,100139.86
2019-05-02T06:50:46.475Z,100136.34
2019-05-02T06:51:51.056Z,100140.66
2019-05-02T06:52:53.921Z,100144.97
2019-05-02T06:53:57.753Z,100149.28
2019-05-02T06:55:00.169Z,100143.66
2019-05-02T06:56:02.383Z,100141.05
2019-05-02T06:57:04.656Z,100149.40
2019-05-02T06:58:08.146Z,100137.92
2019-05-02T06:59:13.046Z,100143.14
2019-05-02T07:00:14.618Z,100146.16
2019-05-02T07:01:21.418Z,100143.66
2019-05-02T07:02:20.943Z,100143.66
2019-05-02T07:03:23.169Z,100139.74
2019-05-02T07:04:25.415Z,100145.76
2019-05-02T07:05:28.263Z,100141.44
2019-05-02T07:06:35.050Z,100148.48
2019-05-02T07:07:37.092Z,100135.82
2019-05-02T07:08:38.219Z,100146.27
2019-05-02T07:09:41.794Z,100139.74
2019-05-02T07:10:45.201Z,100143.78
2019-05-02T07:11:57.023Z,100142.88
2019-05-02T07:13:02.247Z,100141.56
2019-05-02T07:13:55.285Z,100143.38
2019-05-02T07:15:01.557Z,100132.93
2019-05-02T07:16:37.223Z,100139.46
2019-05-02T07:17:38.419Z,100141.72
2019-05-02T07:18:47.726Z,100139.46
2019-05-02T07:19:51.730Z,100133.33
2019-05-02T07:20:53.942Z,100149.16
2019-05-02T07:21:58.527Z,100140.41
2019-05-02T07:23:00.011Z,100142.63
2019-05-02T07:24:02.205Z,100145.23
2019-05-02T07:25:07.045Z,100137.41
2019-05-02T07:26:08.415Z,100137.41
2019-05-02T07:27:10.605Z,100137.41
2019-05-02T07:28:12.835Z,100130.87
2019-05-02T07:29:17.022Z,100132.93
2019-05-02T07:30:19.455Z,100136.85
2019-05-02T07:31:21.653Z,100136.85
2019-05-02T07:32:24.595Z,100135.55
2019-05-02T07:33:32.382Z,100137.80
2019-05-02T07:34:31.658Z,100128.66
2019-05-02T07:35:33.868Z,100140.41
2019-05-02T07:36:36.787Z,100133.09
2019-05-02T07:37:44.086Z,100132.93
2019-05-02T07:38:43.857Z,100131.27
2019-05-02T07:39:46.187Z,100132.02
2019-05-02T07:40:52.975Z,100132.42
2019-05-02T07:41:52.285Z,100131.11
2019-05-02T07:42:54.489Z,100136.34
2019-05-02T07:43:57.558Z,100123.67
2019-05-02T07:45:04.406Z,100125.48
2019-05-02T07:46:03.727Z,100137.41
2019-05-02T07:47:05.995Z,100126.05
2019-05-02T07:48:12.568Z,100123.16
2019-05-02T07:49:12.123Z,100128.89
2019-05-02T07:50:14.362Z,100118.05
2019-05-02T07:51:17.312Z,100118.32
2019-05-02T07:52:20.457Z,100116.38
2019-05-02T07:53:22.672Z,100110.20
2019-05-02T07:54:26.641Z,100101.85
2019-05-02T07:55:30.610Z,100106.28
2019-05-02T07:56:32.610Z,100103.67
2019-05-02T07:57:34.817Z,100103.31
2019-05-02T07:58:37.981Z,100097.53
2019-05-02T07:59:40.895Z,100103.67
2019-05-02T08:00:46.163Z,100102.36
2019-05-02T08:01:49.703Z,100102.13
2019-05-02T08:02:52.236Z,100087.23
2019-05-02T08:03:54.447Z,100096.23
2019-05-02T08:04:56.644Z,100103.05
2019-05-02T08:05:59.904Z,100093.38
2019-05-02T08:07:02.333Z,100104.08
2019-05-02T08:08:04.565Z,100105.78
2019-05-02T08:09:07.380Z,100105.78
2019-05-02T08:10:10.624Z,100110.89
2019-05-02T08:11:13.049Z,100094.70
2019-05-02T08:12:17.159Z,100097.83
2019-05-02T08:13:19.504Z,100104.75
2019-05-02T08:14:22.807Z,100097.43
2019-05-02T08:15:25.004Z,100094.70
2019-05-02T08:16:28.649Z,100095.09
2019-05-02T08:17:30.950Z,100089.08
2019-05-02T08:18:33.175Z,100089.88
2019-05-02T08:19:37.449Z,100084.64
2019-05-02T08:20:39.282Z,100079.03
2019-05-02T08:21:42.479Z,100091.17
2019-05-02T08:22:48.919Z,100082.83
2019-05-02T08:23:48.554Z,100091.17
2019-05-02T08:24:50.778Z,100078.51
2019-05-02T08:25:53.005Z,100081.52
2019-05-02T08:27:12.322Z,100085.44
2019-05-02T08:28:19.134Z,100084.53
2019-05-02T08:29:23.400Z,100088.05
2019-05-02T08:30:27.866Z,100083.62
2019-05-02T08:31:30.323Z,100083.11
2019-05-02T08:32:32.608Z,100089.23
2019-05-02T08:33:35.958Z,100085.32
2019-05-02T08:34:38.282Z,100085.84
2019-05-02T08:35:40.478Z,100081.00
2019-05-02T08:36:42.726Z,100081.00
2019-05-02T08:37:45.028Z,100076.81
2019-05-02T08:38:48.921Z,100085.44
2019-05-02T08:39:52.434Z,100074.98
2019-05-02T08:40:54.657Z,100078.00
2019-05-02T08:41:57.929Z,100078.39
2019-05-02T08:43:03.605Z,100089.36
2019-05-02T08:44:04.055Z,100087.14
2019-05-02T08:45:06.268Z,100076.69
2019-05-02T08:46:09.406Z,100077.09
2019-05-02T08:47:18.793Z,100069.25
2019-05-02T08:48:16.234Z,100078.00
2019-05-02T08:49:18.832Z,100081.52
2019-05-02T08:50:22.265Z,100075.78
2019-05-02T08:51:26.292Z,100083.34
2019-05-02T08:52:28.499Z,100075.90
2019-05-02T08:53:30.718Z,100073.28
2019-05-02T08:54:34.063Z,100069.37
2019-05-02T08:55:36.362Z,100069.25
2019-05-02T08:56:38.592Z,100068.06
2019-05-02T08:57:40.812Z,100060.23
2019-05-02T08:58:44.956Z,100071.07
2019-05-02T08:59:46.877Z,100065.84
2019-05-02T09:00:49.174Z,100066.24
2019-05-02T09:01:51.572Z,100056.19
2019-05-02T09:02:57.000Z,100066.12
2019-05-02T09:03:59.212Z,100062.20
2019-05-02T09:05:04.564Z,100059.95
2019-05-02T09:06:06.326Z,100070.41
2019-05-02T09:07:09.694Z,100071.34
2019-05-02T09:08:14.398Z,100070.80
2019-05-02T09:09:15.768Z,100072.66
2019-05-02T09:10:17.988Z,100074.72
2019-05-02T09:11:20.188Z,100080.34
2019-05-02T09:12:22.956Z,100071.20
2019-05-02T09:13:29.228Z,100072.11
2019-05-02T09:14:29.256Z,100072.50
2019-05-02T09:15:31.994Z,100072.90
2019-05-02T09:16:35.480Z,100071.99
2019-05-02T09:17:38.869Z,100075.91
2019-05-02T09:18:50.719Z,100075.52
2019-05-02T09:19:58.844Z,100076.81
2019-05-02T09:20:54.897Z,100073.30
2019-05-02T09:21:53.146Z,100066.77
2019-05-02T09:22:56.523Z,100071.99
2019-05-02T09:23:58.684Z,100069.38
2019-05-02T09:25:02.355Z,100075.39
2019-05-02T09:26:04.626Z,100080.22
2019-05-02T09:27:07.012Z,100078.92
2019-05-02T09:28:12.420Z,100076.30
2019-05-02T09:29:13.138Z,100069.77
2019-05-02T09:30:17.282Z,100071.47
2019-05-02T09:31:19.213Z,100071.08
2019-05-02T09:32:22.798Z,100067.67
2019-05-02T09:33:25.385Z,100068.47
2019-05-02T09:34:27.537Z,100064.16
2019-05-02T09:35:29.765Z,100072.50
2019-05-02T09:36:32.365Z,100070.17
2019-05-02T09:37:36.323Z,100066.25
2019-05-02T09:38:38.529Z,100066.65
2019-05-02T09:39:41.544Z,100070.56
2019-05-02T09:40:47.180Z,100067.44
2019-05-02T09:41:47.741Z,100066.13
2019-05-02T09:42:53.412Z,100070.96
2019-05-02T09:43:53.817Z,100065.23
2019-05-02T09:44:57.061Z,100071.75
2019-05-02T09:45:59.369Z,100061.70
2019-05-02T09:47:02.390Z,100067.84
2019-05-02T09:48:07.883Z,100074.36
2019-05-02T09:49:13.514Z,100070.05
2019-05-02T09:50:20.684Z,100059.61
2019-05-02T09:51:21.612Z,100062.61
2019-05-02T09:52:23.995Z,100067.05
2019-05-02T09:53:26.307Z,100067.05
2019-05-02T09:54:28.522Z,100069.14
2019-05-02T09:55:31.757Z,100059.20
2019-05-02T09:56:34.179Z,100069.66
2019-05-02T09:57:36.400Z,100062.61
2019-05-02T09:58:38.726Z,100068.75
2019-05-02T09:59:43.480Z,100066.92
2019-05-02T10:00:57.605Z,100066.13
2019-05-02T10:02:01.997Z,100061.31
2019-05-02T10:03:04.313Z,100065.23
2019-05-02T10:04:06.813Z,100069.66
2019-05-02T10:05:09.031Z,100066.92
2019-05-02T10:06:13.895Z,100067.05
2019-05-02T10:07:15.514Z,100072.66
2019-05-02T10:08:17.925Z,100067.44
2019-05-02T10:09:23.991Z,100067.44
2019-05-02T10:10:24.027Z,100064.83
2019-05-02T10:11:26.367Z,100055.57
2019-05-02T10:12:28.648Z,100066.13
2019-05-02T10:13:31.833Z,100064.83
2019-05-02T10:14:34.414Z,100063.13
2019-05-02T10:15:36.689Z,100059.61
2019-05-02T10:16:42.659Z,100053.47
2019-05-02T10:17:46.749Z,100058.70
2019-05-02T10:18:48.524Z,100054.66
2019-05-02T10:19:55.026Z,100068.75
2019-05-02T10:20:54.600Z,100062.22
2019-05-02T10:21:56.802Z,100055.97
2019-05-02T10:22:59.012Z,100058.19
2019-05-02T10:24:03.699Z,100059.09
2019-05-02T10:25:05.079Z,100048.13
2019-05-02T10:26:07.291Z,100050.74
2019-05-02T10:27:09.844Z,100045.80
2019-05-02T10:28:12.869Z,100045.13
2019-05-02T10:29:20.324Z,100054.66
2019-05-02T10:30:21.607Z,100042.39
2019-05-02T10:31:27.525Z,100043.30
2019-05-02T10:32:27.581Z,100043.70
2019-05-02T10:33:33.483Z,100039.78
2019-05-02T10:34:33.635Z,100049.83
2019-05-02T10:35:40.717Z,100044.61
2019-05-02T10:36:45.262Z,100041.20
2019-05-02T10:37:46.955Z,100051.14
2019-05-02T10:38:53.787Z,100040.69
2019-05-02T10:39:55.772Z,100052.05
2019-05-02T10:41:01.667Z,100050.23
2019-05-02T10:42:02.514Z,100045.41
2019-05-02T10:43:04.765Z,100051.14
2019-05-02T10:44:07.003Z,100044.09
2019-05-02T10:45:12.997Z,100042.27
2019-05-02T10:46:19.925Z,100050.11
2019-05-02T10:47:22.270Z,100054.42
2019-05-02T10:48:28.202Z,100049.72
2019-05-02T10:49:36.482Z,100047.11
2019-05-02T10:50:43.705Z,100040.97
2019-05-02T10:51:49.556Z,100041.88
2019-05-02T10:52:49.790Z,100045.41
2019-05-02T10:53:55.276Z,100038.88
2019-05-02T10:54:55.879Z,100040.17
2019-05-02T10:55:58.152Z,100036.38
2019-05-02T10:57:02.247Z,100033.25
2019-05-02T10:58:04.341Z,100032.34
2019-05-02T10:59:06.706Z,100030.64
2019-05-02T11:00:08.931Z,100040.17
2019-05-02T11:01:12.715Z,100032.73
2019-05-02T11:02:25.343Z,100031.83
2019-05-02T11:03:37.952Z,100040.58
2019-05-02T11:04:43.347Z,100036.54
2019-05-02T11:05:48.253Z,100028.59
2019-05-02T11:06:51.824Z,100039.95
2019-05-02T11:07:57.029Z,100048.57
2019-05-02T11:08:58.094Z,100044.26
2019-05-02T11:10:03.044Z,100041.49
2019-05-02T11:11:06.069Z,100037.97
2019-05-02T11:12:09.644Z,100036.67
2019-05-02T11:13:28.139Z,100033.27
2019-05-02T11:14:37.293Z,100031.20
2019-05-02T11:16:12.386Z,100037.33
2019-05-02T11:17:24.903Z,100032.63
2019-05-02T11:18:40.267Z,100027.40
2019-05-02T11:19:42.650Z,100023.08
2019-05-02T11:20:44.898Z,100031.44
2019-05-02T11:21:56.322Z,100029.22
2019-05-02T11:22:52.654Z,100026.20
2019-05-02T11:23:54.924Z,100026.20
2019-05-02T11:24:57.236Z,100027.13
2019-05-02T11:25:59.448Z,100029.33
2019-05-02T11:27:02.210Z,100034.95
2019-05-02T11:28:07.130Z,100031.95
2019-05-02T11:29:08.388Z,100028.42
2019-05-02T11:30:12.131Z,100025.41
2019-05-02T11:31:14.636Z,100025.41
2019-05-02T11:32:16.845Z,100023.20
2019-05-02T11:33:19.142Z,100023.59
2019-05-02T11:34:22.044Z,100025.81
2019-05-02T11:35:25.438Z,100027.13
2019-05-02T11:36:27.651Z,100036.26
2019-05-02T11:37:29.885Z,100026.20
2019-05-02T11:38:32.478Z,100025.81
2019-05-02T11:39:43.479Z,100027.13
2019-05-02T11:40:38.816Z,100030.13
2019-05-02T11:41:42.238Z,100034.05
2019-05-02T11:42:44.590Z,100024.91
2019-05-02T11:43:46.807Z,100032.22
2019-05-02T11:44:49.040Z,100025.70
2019-05-02T11:45:54.392Z,100032.22
2019-05-02T11:46:55.136Z,100027.40
2019-05-02T11:48:01.675Z,100029.22
2019-05-02T11:49:02.383Z,100027.80
2019-05-02T11:50:04.830Z,100022.17
2019-05-02T11:51:07.403Z,100018.26
2019-05-02T11:52:11.878Z,100020.88
2019-05-02T11:53:24.748Z,100021.27
2019-05-02T11:54:18.105Z,100025.19
2019-05-02T11:55:27.342Z,100021.27
2019-05-02T11:56:24.160Z,100026.48
2019-05-02T11:57:28.667Z,100023.08
2019-05-02T11:58:32.374Z,100015.13
2019-05-02T11:59:34.123Z,100017.74
2019-05-02T12:00:39.612Z,100013.03
2019-05-02T12:01:42.639Z,100012.23
2019-05-02T12:03:03.648Z,100014.06
2019-05-02T12:04:07.742Z,100013.15
2019-05-02T12:05:12.782Z,100018.38
2019-05-02T12:06:19.561Z,100008.72
2019-05-02T12:07:18.957Z,100011.84
2019-05-02T12:08:22.626Z,100008.72
2019-05-02T12:09:25.064Z,100017.98